Latest Weather Observations for Goulburn Airport

IDN60901

Issued at 1:21 am EDT Wednesday 28 January 2015 (issued every 10 minutes, with the page automatically refreshed every 10 minutes)

About weather observations | Map of Canberra area stations | Latest observations for Canberra area | Other Formats
Station Details ID: 070330 Name: GOULBURN AIRPORT AWS Lat: -34.81 Lon: 149.73 Height: 640.0 m
Data from the previous 72 hours. | See also: Recent months at Goulburn Airport
Date/Time
EDT
Tmp

°C
App
Tmp
°C
Dew
Point
°C
Rel
Hum
%
Delta-T

°C
Wind Press
QNH
hPa
Press
MSL
hPa
Rain
since
9 am
mm
Dir
 
Spd
km/h
Gust
km/h
Spd
kts
Gust
kts
28/01:11am 12.2 9.8 11.3 94 0.5 SE 15 20 8 11 1015.1 1012.2 0.6
28/12:53am 12.5 10.2 11.6 94 0.5 SSE 15 19 8 10 1015.2 1012.3 0.6
28/12:52am 12.6 10.3 11.7 94 0.5 SSE 15 19 8 10 1015.3 1012.4 0.6
28/12:30am 12.5 9.8 11.6 94 0.5 SE 17 22 9 12 1015.5 1012.6 0.6
 
Date/Time
EDT
Tmp

°C
App
Tmp
°C
Dew
Point
°C
Rel
Hum
%
Delta-T

°C
Wind Press
QNH
hPa
Press
MSL
hPa
Rain
since
9 am
mm
Dir
 
Spd
km/h
Gust
km/h
Spd
kts
Gust
kts
27/11:49pm 13.1 10.6 12.2 94 0.5 SE 17 20 9 11 1015.8 1012.9 0.6
27/11:38pm 13.1 10.2 12.2 94 0.5 SE 19 24 10 13 1015.9 1013.0 0.6
27/11:30pm 13.1 10.0 12.2 94 0.5 SE 20 28 11 15 1015.8 1012.9 0.6
27/11:00pm 13.2 10.2 12.4 95 0.4 SE 20 30 11 16 1015.8 1012.9 0.6
27/10:30pm 13.3 10.3 12.5 95 0.4 SE 20 28 11 15 1015.7 1012.8 0.4
27/10:00pm 13.5 10.5 12.7 95 0.5 SE 20 28 11 15 1015.6 1012.7 0.4
27/09:41pm 13.6 12.0 12.8 95 0.5 SE 13 19 7 10 1015.5 1012.6 0.2
27/09:30pm 13.5 11.9 12.7 95 0.5 SE 13 17 7 9 1015.3 1012.4 0.2
27/09:22pm 13.5 11.9 12.7 95 0.5 SE 13 17 7 9 1015.4 1012.5 0.2
27/09:00pm 13.5 11.8 12.6 94 0.5 ESE 13 19 7 10 1015.4 1012.5 0.2
27/08:46pm 13.5 11.1 12.6 94 0.5 ESE 17 22 9 12 1015.3 1012.4 0.2
27/08:43pm 13.5 11.1 12.6 94 0.5 ESE 17 22 9 12 1015.3 1012.4 0.2
27/08:30pm 13.4 10.6 12.5 94 0.5 ESE 19 28 10 15 1015.3 1012.4 0.2
27/08:00pm 13.6 11.6 12.7 94 0.5 SE 15 19 8 10 1015.2 1012.3 0.2
27/07:30pm 14.1 11.0 12.1 88 1.1 SE 20 32 11 17 1014.9 1011.9 0.2
27/07:00pm 14.3 10.8 12.2 87 1.2 SE 22 30 12 16 1014.5 1011.6 0.2
27/06:30pm 15.0 12.6 12.5 85 1.4 SE 17 24 9 13 1014.1 1011.2 0.2
27/05:30pm 14.3 11.6 12.9 91 0.8 SE 19 24 10 13 1014.2 1011.3 0.2
27/05:00pm 15.0 12.3 13.4 90 0.9 ESE 20 28 11 15 1014.2 1011.3 0.2
27/04:30pm 14.8 12.2 13.7 93 0.6 SE 20 26 11 14 1014.1 1011.2 0.2
27/04:00pm 15.1 13.1 14.0 93 0.6 SE 17 20 9 11 1014.6 1011.7 0.0
27/03:30pm 14.9 11.8 13.3 90 0.9 ESE 22 30 12 16 1014.7 1011.8 0.0
27/03:00pm 15.6 12.9 13.4 87 1.3 ESE 20 28 11 15 1014.6 1011.7 0.0
27/02:30pm 15.9 13.0 12.8 82 1.8 E 20 28 11 15 1014.7 1011.8 0.0
27/02:00pm 16.2 12.6 12.9 81 1.9 ESE 24 33 13 18 1015.0 1012.0 0.0
27/01:30pm 16.3 13.0 14.0 86 1.3 ESE 24 33 13 18 1014.9 1011.9 0.0
27/01:00pm 15.6 12.8 14.3 92 0.8 ESE 22 30 12 16 1015.4 1012.5 0.0
27/12:30pm 15.1 12.8 13.1 88 1.1 ESE 17 24 9 13 1015.8 1012.9 0.0
27/12:00pm 15.0 12.8 13.4 90 0.9 ESE 17 22 9 12 1015.8 1012.9 0.0
27/11:30am 14.7 12.1 13.2 91 0.9 ESE 19 26 10 14 1015.8 1012.9 0.0
27/11:00am 15.0 13.5 14.2 95 0.5 ESE 15 20 8 11 1015.8 1012.9 0.0
27/10:30am 14.0 11.8 13.2 95 0.5 ESE 17 22 9 12 1016.1 1013.2 0.0
27/10:00am 13.8 11.1 13.0 95 0.5 SE 19 26 10 14 1016.0 1013.1 0.0
27/09:30am 13.6 11.3 13.0 96 0.3 SE 17 20 9 11 1016.0 1013.1 0.0
27/09:00am 13.5 11.6 12.9 96 0.3 SE 15 20 8 11 1016.0 1013.1 0.6
27/08:00am 13.1 11.0 12.5 96 0.3 SE 15 20 8 11 1015.6 1012.7 0.6
27/07:30am 13.1 11.4 12.6 97 0.3 ESE 13 19 7 10 1015.4 1012.5 0.6
27/07:00am 13.1 11.1 12.6 97 0.3 SE 15 19 8 10 1015.1 1012.2 0.6
27/06:30am 12.9 11.2 12.4 97 0.3 ESE 13 20 7 11 1014.7 1011.8 0.6
27/05:30am 12.8 10.7 12.3 97 0.3 ESE 15 20 8 11 1014.5 1011.6 0.4
27/05:00am 12.7 10.9 12.2 97 0.3 SE 13 17 7 9 1014.6 1011.7 0.4
27/04:30am 12.7 10.5 12.2 97 0.3 ESE 15 20 8 11 1014.9 1011.9 0.2
27/04:00am 12.7 10.9 12.2 97 0.3 SE 13 17 7 9 1015.0 1012.0 0.2
27/03:30am 12.7 10.9 12.2 97 0.3 SE 13 19 7 10 1015.1 1012.2 0.2
27/03:00am 12.6 10.4 12.1 97 0.3 SE 15 20 8 11 1015.3 1012.4 0.2
27/02:30am 12.7 10.5 12.2 97 0.3 SE 15 20 8 11 1015.5 1012.6 0.2
27/02:00am 12.7 10.5 12.2 97 0.3 SE 15 20 8 11 1015.6 1012.7 0.2
27/01:30am 12.7 10.5 12.2 97 0.3 SE 15 20 8 11 1015.8 1012.9 0.2
27/01:00am 12.8 10.3 12.2 96 0.3 ESE 17 22 9 12 1016.1 1013.2 0.2
27/12:30am 12.7 10.5 12.2 97 0.3 ESE 15 20 8 11 1016.2 1013.3 0.2
27/12:00am 12.7 10.5 12.2 97 0.3 ESE 15 20 8 11 1016.3 1013.4 0.0
 
Date/Time
EDT
Tmp

°C
App
Tmp
°C
Dew
Point
°C
Rel
Hum
%
Delta-T

°C
Wind Press
QNH
hPa
Press
MSL
hPa
Rain
since
9 am
mm
Dir
 
Spd
km/h
Gust
km/h
Spd
kts
Gust
kts
26/11:30pm 12.5 10.6 11.9 96 0.3 SE 13 19 7 10 1016.7 1013.8 0.0
26/11:00pm 12.4 10.5 11.8 96 0.3 SE 13 17 7 9 1016.9 1014.0 0.0
26/10:30pm 12.5 10.6 11.7 95 0.4 SE 13 17 7 9 1017.2 1014.3 0.0
26/10:00pm 12.5 10.5 11.6 94 0.5 SE 13 19 7 10 1017.2 1014.3 0.0
26/09:30pm 12.6 10.3 11.7 94 0.5 ESE 15 20 8 11 1016.8 1013.9 0.0
26/09:00pm 12.5 10.2 11.7 95 0.4 ESE 15 20 8 11 1016.7 1013.8 0.0
26/08:30pm 12.4 10.4 11.6 95 0.4 ESE 13 19 7 10 1016.6 1013.7 0.0
26/08:00pm 12.4 10.0 11.5 94 0.5 ESE 15 20 8 11 1016.4 1013.6 0.0
26/07:30pm 12.5 10.1 11.4 93 0.6 ESE 15 20 8 11 1016.1 1013.2 0.0
26/07:00pm 12.6 10.1 11.0 90 0.9 SE 15 20 8 11 1015.9 1013.0 0.0
26/06:30pm 13.4 9.8 10.6 83 1.5 ESE 20 30 11 16 1015.6 1012.7 0.0
26/06:00pm 13.8 10.3 10.8 82 1.6 ESE 20 32 11 17 1015.4 1012.5 0.0
26/05:30pm 13.7 8.9 10.3 80 1.8 ESE 26 35 14 19 1015.3 1012.4 0.0
26/05:00pm 14.0 10.3 10.2 78 2.0 ESE 20 28 11 15 1015.3 1012.4 0.0
26/04:30pm 14.3 10.0 10.7 79 2.0 E 24 33 13 18 1015.2 1012.3 0.0
26/04:00pm 14.4 9.7 10.6 78 2.1 ESE 26 33 14 18 1015.2 1012.3 0.0
26/03:30pm 14.7 10.4 10.7 77 2.2 E 24 30 13 16 1015.1 1012.2 0.0
26/03:00pm 14.9 11.5 11.1 78 2.1 ESE 20 26 11 14 1015.3 1012.4 0.0
26/02:30pm 15.2 11.9 11.0 76 2.3 E 19 28 10 15 1015.2 1012.3 0.0
26/02:00pm 15.3 11.7 10.7 74 2.5 E 20 28 11 15 1015.3 1012.4 0.0
26/01:30pm 15.5 12.0 10.9 74 2.5 E 20 32 11 17 1015.4 1012.5 0.0
26/01:00pm 15.1 11.6 10.9 76 2.3 E 20 28 11 15 1015.6 1012.7 0.0
26/12:30pm 15.1 11.5 10.7 75 2.4 E 20 26 11 14 1015.6 1012.7 0.0
26/12:00pm 15.4 12.2 11.2 76 2.3 ESE 19 24 10 13 1015.7 1012.8 0.0
26/11:30am 15.3 12.1 11.3 77 2.2 E 19 22 10 12 1015.6 1012.7 0.0
26/11:00am 15.0 12.0 11.8 81 1.8 ESE 19 24 10 13 1015.6 1012.7 0.0
26/10:30am 15.0 12.3 11.6 80 1.9 E 17 22 9 12 1015.5 1012.6 0.0
26/10:00am 14.8 12.1 11.6 81 1.8 ESE 17 24 9 13 1015.4 1012.5 0.0
26/09:30am 14.8 12.2 11.9 83 1.6 ESE 17 22 9 12 1015.6 1012.7 0.0
26/09:00am 14.2 11.9 11.7 85 1.4 ESE 15 20 8 11 1015.5 1012.6 0.0
26/08:30am 14.4 11.4 12.1 86 1.3 ESE 19 26 10 14 1015.2 1012.3 0.0
26/08:00am 13.9 10.7 11.8 87 1.2 E 20 26 11 14 1014.9 1011.9 0.0
26/07:30am 13.8 10.8 12.0 89 1.0 ESE 19 22 10 12 1014.6 1011.7 0.0
26/07:00am 13.8 11.1 11.8 88 1.1 E 17 24 9 13 1014.3 1011.4 0.0
26/06:30am 13.9 11.2 11.8 87 1.2 E 17 22 9 12 1013.9 1011.0 0.0
26/06:00am 13.9 11.2 11.6 86 1.3 E 17 22 9 12 1013.6 1010.6 0.0
26/05:30am 14.1 11.1 11.8 86 1.3 E 19 24 10 13 1013.5 1010.5 0.0
26/05:00am 14.0 11.7 11.9 87 1.2 ESE 15 20 8 11 1013.0 1010.1 0.0
26/04:30am 14.1 11.9 12.0 87 1.2 E 15 20 8 11 1012.8 1009.9 0.0
26/04:00am 14.1 11.5 12.0 87 1.2 E 17 22 9 12 1012.6 1009.7 0.0
26/03:37am 14.1 11.5 12.1 88 1.1 E 17 22 9 12 1012.6 1009.7 0.0
26/03:32am 14.2 11.3 12.2 88 1.1 E 19 24 10 13 1012.6 1009.7 0.0
26/03:30am 14.1 11.1 12.1 88 1.1 E 19 26 10 14 1012.6 1009.7 0.0
26/03:19am 14.3 11.8 12.3 88 1.1 E 17 24 9 13 1012.6 1009.7 0.0
26/03:18am 14.4 11.9 12.4 88 1.1 E 17 24 9 13 1012.6 1009.7 0.0
26/03:00am 14.3 12.2 12.3 88 1.1 E 15 20 8 11 1012.6 1009.7 0.0
26/02:38am 14.2 12.4 12.2 88 1.1 E 13 19 7 10 1012.6 1009.7 0.0
26/02:30am 14.2 12.4 12.2 88 1.1 E 13 17 7 9 1012.6 1009.7 0.0
26/02:00am 14.3 11.8 12.3 88 1.1 E 17 22 9 12 1012.4 1009.5 0.0
26/01:30am 14.8 12.8 12.8 88 1.1 E 15 20 8 11 1012.5 1009.6 0.0
26/01:20am 15.0 13.1 13.0 88 1.1 E 15 19 8 10 1012.5 1009.6 0.0
26/01:00am 15.1 12.9 13.3 89 1.0 E 17 20 9 11 1012.4 1009.5 0.0
26/12:30am 15.3 14.0 13.7 90 0.9 E 13 19 7 10 1012.2 1009.2 0.0
26/12:00am 15.2 13.9 13.6 90 0.9 ESE 13 17 7 9 1012.2 1009.2 0.0
 
Date/Time
EDT
Tmp

°C
App
Tmp
°C
Dew
Point
°C
Rel
Hum
%
Delta-T

°C
Wind Press
QNH
hPa
Press
MSL
hPa
Rain
since
9 am
mm
Dir
 
Spd
km/h
Gust
km/h
Spd
kts
Gust
kts
25/11:30pm 15.3 14.0 13.8 91 0.9 ESE 13 17 7 9 1012.1 1009.1 0.0
25/11:00pm 15.0 14.4 13.5 91 0.9 SE 9 11 5 6 1011.9 1008.9 0.0
25/10:57pm 14.9 14.6 13.3 90 0.9 SE 7 11 4 6 1011.9 1008.9 0.0
25/10:30pm 15.4 14.5 13.6 89 1.0 ESE 11 15 6 8 1011.7 1008.7 0.0
25/10:00pm 16.0 13.5 14.2 89 1.1 ESE 20 26 11 14 1011.1 1008.2 0.0
25/09:30pm 15.1 13.6 9.2 68 3.1 WSW 7 11 4 6 1010.6 1007.6 0.0
25/09:00pm 17.1 14.2 9.5 61 4.1 W 15 17 8 9 1010.1 1007.1 0.0
25/08:30pm 17.9 15.6 9.0 56 4.8 W 11 15 6 8 1009.9 1006.9 0.0
25/08:00pm 20.5 17.5 9.1 48 6.2 W 15 17 8 9 1009.3 1006.3 0.0
25/07:30pm 23.3 18.2 7.8 37 8.4 W 24 32 13 17 1008.9 1005.9 0.0
25/07:00pm 24.5 18.7 8.0 35 9.1 W 28 37 15 20 1008.6 1005.6 0.0
25/06:30pm 25.2 19.3 9.1 36 9.0 WNW 30 43 16 23 1008.1 1005.2 0.0
25/06:00pm 25.7 19.4 9.1 35 9.3 W 32 41 17 22 1007.7 1004.7 0.0
25/05:30pm 26.1 19.3 9.4 35 9.4 W 35 48 19 26 1007.5 1004.5 0.0
25/05:00pm 26.6 20.2 9.5 34 9.7 W 33 43 18 23 1007.3 1004.3 0.0
25/04:30pm 26.4 19.7 9.7 35 9.5 WNW 35 44 19 24 1007.2 1004.2 0.0
25/04:00pm 26.9 20.6 11.0 37 9.3 W 35 48 19 26 1007.0 1004.0 0.0
25/03:30pm 26.7 20.5 9.5 34 9.8 W 32 52 17 28 1007.0 1004.0 0.0
25/03:01pm 26.8 20.2 10.1 35 9.6 W 35 54 19 29 1006.9 1003.9 0.0
25/03:00pm 26.9 20.1 10.6 36 9.5 W 37 54 20 29 1006.9 1003.9 0.0
25/02:36pm 27.6 22.3 12.4 39 9.1 W 32 50 17 27 1006.8 1003.8 0.0
25/02:30pm 27.0 20.2 10.7 36 9.5 W 37 50 20 27 1006.8 1003.8 0.0
25/02:00pm 26.6 18.8 11.1 38 9.1 WNW 43 56 23 30 1006.7 1003.7 0.0
25/01:49pm 26.6 21.5 13.7 45 7.8 WNW 33 52 18 28 1006.6 1003.5 0.0
25/01:30pm 26.3 22.0 15.4 51 6.8 WNW 32 44 17 24 1006.6 1003.5 0.0
25/01:00pm 25.8 21.5 15.8 54 6.3 WNW 33 46 18 25 1006.6 1003.5 0.0
25/12:30pm 25.2 21.6 17.7 63 4.8 W 33 41 18 22 1006.7 1003.7 0.0
25/12:00pm 24.5 21.3 17.2 63 4.7 WNW 30 43 16 23 1006.7 1003.7 0.0
25/11:30am 23.6 20.3 18.0 71 3.6 W 32 43 17 23 1006.8 1003.8 0.0
25/11:00am 22.8 20.1 17.5 72 3.4 W 28 39 15 21 1006.8 1003.8 0.0
25/10:30am 22.4 20.6 17.8 75 2.9 WNW 24 33 13 18 1006.7 1003.7 0.0
25/10:00am 21.5 18.2 16.9 75 2.9 WNW 30 41 16 22 1006.7 1003.7 0.0
25/09:30am 22.2 18.5 16.9 72 3.3 W 32 48 17 26 1006.8 1003.8 0.0
25/09:00am 21.8 17.5 17.0 74 3.0 WNW 35 48 19 26 1006.8 1003.8 23.6
25/08:30am 21.3 18.4 17.1 77 2.6 W 28 39 15 21 1006.7 1003.7 23.6
25/08:29am 21.3 18.4 17.1 77 2.6 W 28 39 15 21 1006.7 1003.7 23.6
25/08:00am 20.0 19.6 17.2 84 1.8 WNW 15 20 8 11 1006.4 1003.4 23.6
25/07:30am 17.6 19.6 17.0 96 0.4 WNW 2 11 1 6 1006.2 1003.2 23.6
25/07:00am 15.8 16.4 15.2 96 0.4 NNW 6 7 3 4 1006.0 1003.0 23.6
25/06:30am 14.5 15.7 13.7 95 0.5 CALM 0 0 0 0 1005.9 1002.9 23.6
25/06:00am 14.2 14.1 13.2 94 0.6 WNW 6 9 3 5 1005.5 1002.5 23.4
25/05:30am 14.5 14.3 13.5 94 0.6 NW 7 11 4 6 1005.3 1002.3 23.4
25/05:00am 15.5 15.3 14.7 95 0.5 NNW 9 11 5 6 1005.3 1002.3 23.4
25/04:30am 15.7 15.5 14.7 94 0.6 NNW 9 9 5 5 1005.5 1002.5 23.4
25/04:00am 16.1 16.1 15.1 94 0.6 NNW 9 13 5 7 1005.7 1002.7 23.4
25/03:30am 16.3 15.6 15.5 95 0.5 NW 13 17 7 9 1005.8 1002.8 23.4
25/03:00am 16.5 15.5 15.7 95 0.5 NW 15 17 8 9 1006.1 1003.1 23.4
25/02:36am 15.6 16.8 14.8 95 0.5 N 2 11 1 6 1006.3 1003.3 23.4
25/02:30am 15.8 17.5 15.2 96 0.4 CALM 0 6 0 3 1006.3 1003.3 23.4
25/02:20am 15.9 16.5 15.3 96 0.4 N 6 9 3 5 1006.4 1003.4 23.4
25/02:00am 16.4 16.6 15.8 96 0.4 NE 9 11 5 6 1006.6 1003.5 23.4
25/01:30am 16.4 17.0 15.8 96 0.4 NNW 7 9 4 5 1007.1 1004.1 23.4

Latest Capital City Observations: Canberra | Sydney | Melbourne | Brisbane | Adelaide | Perth | Hobart | Darwin

Other Formats:

Comma delimited format used in spreadsheet applications
http://www.bom.gov.au/fwo/IDN60903/IDN60903.95716.axf

JavaScript Object Notation format (JSON) in row-major order
http://www.bom.gov.au/fwo/IDN60903/IDN60903.95716.json